createdAt,value
2019-03-17T00:01:33.486Z,7.60
2019-03-17T00:04:00.234Z,7.60
2019-03-17T00:06:26.930Z,7.60
2019-03-17T00:08:53.647Z,7.60
2019-03-17T00:11:20.163Z,7.60
2019-03-17T00:13:46.882Z,7.50
2019-03-17T00:16:13.588Z,7.50
2019-03-17T00:18:40.028Z,7.50
2019-03-17T00:21:06.502Z,7.40
2019-03-17T00:23:33.406Z,7.50
2019-03-17T00:26:00.142Z,7.40
2019-03-17T00:28:27.103Z,7.50
2019-03-17T00:30:53.798Z,7.50
2019-03-17T00:33:20.508Z,7.50
2019-03-17T00:35:47.199Z,7.50
2019-03-17T00:38:14.149Z,7.60
2019-03-17T00:40:40.635Z,7.60
2019-03-17T00:43:07.827Z,7.60
2019-03-17T00:45:34.507Z,7.60
2019-03-17T00:48:00.939Z,7.60
2019-03-17T00:50:27.655Z,7.60
2019-03-17T00:52:54.374Z,7.60
2019-03-17T00:55:21.086Z,7.60
2019-03-17T00:57:47.527Z,7.60
2019-03-17T01:00:14.586Z,7.50
2019-03-17T01:02:41.353Z,7.50
2019-03-17T01:05:07.835Z,7.50
2019-03-17T01:07:34.528Z,7.60
2019-03-17T01:10:01.729Z,7.50
2019-03-17T01:12:28.746Z,7.50
2019-03-17T01:14:55.441Z,7.50
2019-03-17T01:17:22.023Z,7.50
2019-03-17T01:19:48.942Z,7.50
2019-03-17T01:22:15.656Z,7.50
2019-03-17T01:24:42.834Z,7.50
2019-03-17T01:27:09.779Z,7.50
2019-03-17T01:29:36.534Z,7.60
2019-03-17T01:32:03.232Z,7.50
2019-03-17T01:34:30.150Z,7.60
2019-03-17T01:36:56.883Z,7.50
2019-03-17T01:39:23.426Z,7.50
2019-03-17T01:41:50.147Z,7.50
2019-03-17T01:44:16.831Z,7.50
2019-03-17T01:46:43.570Z,7.50
2019-03-17T01:49:10.483Z,7.50
2019-03-17T01:51:37.166Z,7.50
2019-03-17T01:54:03.913Z,7.50
2019-03-17T01:56:30.595Z,7.50
2019-03-17T01:58:57.363Z,7.50
2019-03-17T02:01:24.163Z,7.50
2019-03-17T02:03:50.939Z,7.50
2019-03-17T02:06:17.630Z,7.50
2019-03-17T02:08:44.496Z,7.50
2019-03-17T02:11:11.803Z,7.50
2019-03-17T02:13:38.578Z,7.50
2019-03-17T02:16:05.045Z,7.50
2019-03-17T02:18:31.798Z,7.50
2019-03-17T02:20:58.535Z,7.50
2019-03-17T02:23:25.445Z,7.50
2019-03-17T02:25:52.057Z,7.50
2019-03-17T02:28:18.578Z,7.50
2019-03-17T02:30:45.777Z,7.50
2019-03-17T02:33:12.329Z,7.50
2019-03-17T02:35:40.181Z,7.50
2019-03-17T02:38:07.098Z,7.50
2019-03-17T02:40:33.795Z,7.50
2019-03-17T02:43:00.491Z,7.50
2019-03-17T02:45:27.200Z,7.50
2019-03-17T02:47:53.647Z,7.50
2019-03-17T02:50:20.814Z,7.50
2019-03-17T02:52:48.905Z,7.40
2019-03-17T02:55:15.851Z,7.40
2019-03-17T02:57:42.802Z,7.40
2019-03-17T03:00:09.269Z,7.40
2019-03-17T03:02:36.407Z,7.40
2019-03-17T03:05:03.363Z,7.30
2019-03-17T03:07:29.924Z,7.30
2019-03-17T03:09:56.900Z,7.40
2019-03-17T03:12:23.603Z,7.40
2019-03-17T03:14:50.285Z,7.40
2019-03-17T03:17:17.223Z,7.40
2019-03-17T03:19:44.377Z,7.30
2019-03-17T03:22:11.087Z,7.30
2019-03-17T03:24:37.968Z,7.30
2019-03-17T03:27:04.440Z,7.30
2019-03-17T03:29:31.134Z,7.30
2019-03-17T03:31:57.714Z,7.20
2019-03-17T03:34:24.639Z,7.20
2019-03-17T03:36:51.107Z,7.20
2019-03-17T03:39:17.651Z,7.20
2019-03-17T03:41:44.110Z,7.20
2019-03-17T03:44:10.586Z,7.10
2019-03-17T03:46:37.291Z,7.00
2019-03-17T03:49:03.734Z,7.00
2019-03-17T03:51:30.691Z,7.00
2019-03-17T03:53:57.192Z,6.90
2019-03-17T03:56:23.971Z,6.90
2019-03-17T03:58:50.436Z,6.90
2019-03-17T04:01:17.127Z,7.00
2019-03-17T04:03:43.670Z,7.00
2019-03-17T04:06:25.140Z,7.00
2019-03-17T04:08:39.196Z,7.00
2019-03-17T04:11:05.902Z,7.00
2019-03-17T04:13:32.575Z,7.00
2019-03-17T04:15:59.060Z,7.00
2019-03-17T04:18:25.518Z,7.10
2019-03-17T04:20:51.991Z,7.10
2019-03-17T04:23:18.538Z,7.00
2019-03-17T04:25:45.454Z,7.00
2019-03-17T04:28:12.150Z,7.10
2019-03-17T04:30:39.294Z,7.00
2019-03-17T04:33:06.215Z,7.00
2019-03-17T04:35:32.663Z,7.00
2019-03-17T04:37:59.254Z,7.10
2019-03-17T04:40:26.016Z,7.20
2019-03-17T04:42:53.180Z,7.10
2019-03-17T04:45:20.334Z,7.30
2019-03-17T04:47:47.274Z,7.30
2019-03-17T04:50:14.178Z,7.30
2019-03-17T04:52:40.886Z,7.40
2019-03-17T04:55:07.584Z,7.50
2019-03-17T04:57:34.042Z,7.50
2019-03-17T05:00:00.716Z,7.40
2019-03-17T05:02:27.648Z,7.40
2019-03-17T05:04:54.317Z,7.40
2019-03-17T05:07:20.785Z,7.40
2019-03-17T05:09:47.690Z,7.40
2019-03-17T05:12:14.215Z,7.40
2019-03-17T05:14:41.146Z,7.40
2019-03-17T05:17:08.086Z,7.50
2019-03-17T05:19:34.777Z,7.50
2019-03-17T05:22:01.489Z,7.50
2019-03-17T05:24:28.171Z,7.50
2019-03-17T05:26:55.202Z,7.60
2019-03-17T05:29:22.122Z,7.50
2019-03-17T05:31:48.830Z,7.50
2019-03-17T05:34:15.770Z,7.50
2019-03-17T05:36:42.450Z,7.50
2019-03-17T05:39:08.910Z,7.50
2019-03-17T05:41:36.086Z,7.50
2019-03-17T05:44:02.797Z,7.60
2019-03-17T05:46:29.465Z,7.60
2019-03-17T05:48:55.931Z,7.60
2019-03-17T05:51:22.366Z,7.60
2019-03-17T05:53:48.827Z,7.60
2019-03-17T05:56:15.501Z,7.60
2019-03-17T05:58:42.426Z,7.60
2019-03-17T06:01:09.447Z,7.60
2019-03-17T06:03:36.400Z,7.60
2019-03-17T06:06:03.091Z,7.60
2019-03-17T06:08:29.793Z,7.60
2019-03-17T06:10:56.710Z,7.60
2019-03-17T06:13:23.426Z,7.70
2019-03-17T06:15:50.106Z,7.70
2019-03-17T06:18:16.815Z,7.70
2019-03-17T06:20:43.961Z,7.70
2019-03-17T06:23:11.135Z,7.70
2019-03-17T06:25:37.578Z,7.70
2019-03-17T06:28:04.278Z,7.80
2019-03-17T06:30:30.982Z,7.80
2019-03-17T06:32:57.702Z,7.80
2019-03-17T06:35:24.422Z,7.80
2019-03-17T06:37:50.886Z,7.80
2019-03-17T06:40:17.576Z,7.70
2019-03-17T06:42:44.038Z,7.80
2019-03-17T06:45:10.966Z,7.80
2019-03-17T06:47:37.638Z,7.80
2019-03-17T06:50:05.440Z,7.80
2019-03-17T06:52:32.126Z,7.90
2019-03-17T06:54:58.830Z,7.90
2019-03-17T06:57:25.516Z,7.90
2019-03-17T06:59:52.224Z,7.90
2019-03-17T07:02:18.915Z,8.00
2019-03-17T07:04:45.383Z,8.00
2019-03-17T07:07:11.826Z,8.10
2019-03-17T07:09:38.750Z,8.20
2019-03-17T07:12:05.473Z,8.40
2019-03-17T07:14:32.166Z,8.70
2019-03-17T07:16:58.934Z,9.40
2019-03-17T07:19:25.646Z,10.50
2019-03-17T07:21:52.330Z,11.40
2019-03-17T07:24:19.507Z,11.80
2019-03-17T07:26:46.190Z,11.40
2019-03-17T07:29:12.910Z,11.30
2019-03-17T07:31:39.623Z,11.00
2019-03-17T07:34:06.330Z,10.20
2019-03-17T07:36:32.771Z,9.80
2019-03-17T07:39:11.170Z,9.30
2019-03-17T07:41:28.538Z,9.00
2019-03-17T07:43:55.014Z,8.80
2019-03-17T07:46:21.459Z,8.70
2019-03-17T07:48:48.475Z,8.60
2019-03-17T07:51:15.399Z,8.60
2019-03-17T07:53:42.337Z,8.60
2019-03-17T07:56:09.010Z,8.50
2019-03-17T07:58:35.479Z,8.60
2019-03-17T08:01:02.150Z,8.60
2019-03-17T08:03:28.838Z,8.50
2019-03-17T08:05:55.537Z,8.60
2019-03-17T08:08:22.250Z,8.60
2019-03-17T08:10:49.058Z,8.60
2019-03-17T08:13:15.974Z,8.60
2019-03-17T08:15:43.143Z,8.60
2019-03-17T08:18:09.623Z,8.60
2019-03-17T08:20:36.650Z,8.60
2019-03-17T08:23:03.459Z,8.70
2019-03-17T08:25:30.166Z,8.70
2019-03-17T08:27:57.082Z,8.80
2019-03-17T08:30:24.042Z,8.80
2019-03-17T08:32:50.739Z,8.80
2019-03-17T08:35:17.444Z,8.90
2019-03-17T08:37:44.163Z,8.80
2019-03-17T08:40:11.023Z,8.80
2019-03-17T08:42:37.470Z,8.80
2019-03-17T08:45:04.416Z,8.80
2019-03-17T08:47:30.900Z,8.80
2019-03-17T08:49:57.836Z,8.80
2019-03-17T08:52:24.539Z,8.80
2019-03-17T08:54:51.243Z,8.90
2019-03-17T08:57:17.929Z,8.90
2019-03-17T08:59:44.393Z,9.00
2019-03-17T09:02:10.836Z,9.00
2019-03-17T09:04:37.530Z,9.00
2019-03-17T09:07:03.971Z,9.10
2019-03-17T09:09:30.511Z,9.10
2019-03-17T09:11:56.950Z,9.10
2019-03-17T09:14:23.390Z,9.20
2019-03-17T09:16:49.874Z,9.20
2019-03-17T09:19:16.627Z,9.20
2019-03-17T09:21:43.326Z,9.20
2019-03-17T09:24:17.003Z,9.20
2019-03-17T09:26:39.022Z,9.20
2019-03-17T09:29:05.714Z,9.30
2019-03-17T09:31:32.422Z,9.30
2019-03-17T09:33:59.101Z,9.20
2019-03-17T09:36:25.930Z,9.30
2019-03-17T09:38:52.387Z,9.40
2019-03-17T09:41:18.853Z,9.40
2019-03-17T09:43:45.526Z,9.50
2019-03-17T09:46:13.340Z,9.50
2019-03-17T09:48:40.766Z,9.50
2019-03-17T09:51:08.938Z,9.40
2019-03-17T09:53:36.152Z,9.40
2019-03-17T09:56:03.673Z,9.40
2019-03-17T09:58:30.751Z,9.40
2019-03-17T10:00:58.040Z,9.60
2019-03-17T10:03:25.369Z,9.60
2019-03-17T10:05:54.173Z,9.60
2019-03-17T10:08:21.234Z,9.50
2019-03-17T10:10:49.034Z,9.40
2019-03-17T10:13:16.559Z,9.40
2019-03-17T10:15:44.447Z,9.40
2019-03-17T10:18:12.395Z,9.40
2019-03-17T10:20:39.173Z,9.40
2019-03-17T10:23:05.913Z,9.30
2019-03-17T10:25:32.842Z,9.40
2019-03-17T10:27:59.900Z,9.40
2019-03-17T10:30:26.855Z,9.50
2019-03-17T10:32:53.298Z,9.60
2019-03-17T10:35:20.218Z,9.90
2019-03-17T10:37:47.173Z,10.00
2019-03-17T10:40:13.629Z,10.00
2019-03-17T10:42:40.093Z,9.80
2019-03-17T10:45:06.965Z,9.80
2019-03-17T10:47:33.426Z,9.80
2019-03-17T10:50:00.335Z,9.70
2019-03-17T10:52:26.796Z,9.60
2019-03-17T10:54:53.519Z,9.50
2019-03-17T10:57:20.239Z,9.50
2019-03-17T10:59:46.779Z,9.50
2019-03-17T11:02:13.473Z,9.60
2019-03-17T11:04:40.166Z,9.80
2019-03-17T11:07:07.027Z,10.00
2019-03-17T11:09:33.731Z,10.10
2019-03-17T11:12:00.450Z,10.00
2019-03-17T11:14:26.895Z,10.00
2019-03-17T11:16:53.354Z,9.80
2019-03-17T11:19:19.799Z,9.70
2019-03-17T11:21:46.761Z,9.70
2019-03-17T11:24:13.453Z,9.60
2019-03-17T11:26:40.399Z,9.50
2019-03-17T11:29:07.136Z,9.40
2019-03-17T11:31:33.611Z,9.40
2019-03-17T11:34:00.286Z,9.40
2019-03-17T11:36:27.552Z,9.50
2019-03-17T11:38:54.242Z,9.60
2019-03-17T11:41:21.238Z,9.80
2019-03-17T11:43:48.630Z,10.10
2019-03-17T11:46:15.415Z,10.50
2019-03-17T11:48:41.914Z,11.10
2019-03-17T11:51:08.804Z,11.30
2019-03-17T11:53:35.794Z,11.50
2019-03-17T11:56:02.495Z,12.20
2019-03-17T11:58:28.957Z,13.30
2019-03-17T12:00:55.399Z,12.80
2019-03-17T12:03:21.971Z,12.10
2019-03-17T12:05:49.117Z,11.30
2019-03-17T12:08:15.578Z,10.60
2019-03-17T12:10:42.594Z,10.20
2019-03-17T12:13:09.066Z,10.00
2019-03-17T12:15:35.986Z,9.80
2019-03-17T12:18:02.458Z,9.70
2019-03-17T12:20:29.613Z,9.60
2019-03-17T12:22:56.299Z,9.30
2019-03-17T12:25:23.220Z,8.80
2019-03-17T12:27:50.950Z,8.30
2019-03-17T12:30:18.192Z,7.90
2019-03-17T12:32:44.739Z,7.60
2019-03-17T12:35:11.418Z,7.30
2019-03-17T12:37:38.361Z,7.20
2019-03-17T12:40:05.191Z,7.20
2019-03-17T12:42:31.887Z,7.10
2019-03-17T12:44:58.576Z,7.10
2019-03-17T12:47:25.316Z,7.10
2019-03-17T12:49:51.855Z,7.10
2019-03-17T12:52:18.547Z,7.00
2019-03-17T12:54:45.474Z,7.00
2019-03-17T12:57:12.142Z,7.00
2019-03-17T12:59:38.612Z,6.90
2019-03-17T13:02:05.294Z,6.90
2019-03-17T13:04:31.991Z,7.00
2019-03-17T13:06:58.922Z,6.90
2019-03-17T13:09:25.866Z,6.70
2019-03-17T13:11:52.793Z,6.60
2019-03-17T13:14:19.732Z,6.40
2019-03-17T13:16:46.427Z,6.20
2019-03-17T13:19:13.134Z,6.00
2019-03-17T13:21:40.042Z,5.70
2019-03-17T13:24:06.738Z,5.50
2019-03-17T13:26:33.187Z,5.50
2019-03-17T13:28:59.886Z,5.50
2019-03-17T13:31:26.582Z,5.50
2019-03-17T13:33:53.052Z,5.60
2019-03-17T13:36:19.486Z,5.80
2019-03-17T13:38:45.954Z,5.90
2019-03-17T13:41:12.742Z,5.90
2019-03-17T13:43:39.202Z,5.90
2019-03-17T13:46:05.882Z,5.90
2019-03-17T13:48:32.819Z,5.90
2019-03-17T13:50:59.734Z,5.80
2019-03-17T13:53:26.754Z,5.90
2019-03-17T13:55:53.822Z,5.90
2019-03-17T13:58:20.731Z,6.00
2019-03-17T14:00:48.538Z,6.20
2019-03-17T14:03:14.996Z,6.20
2019-03-17T14:05:41.922Z,6.30
2019-03-17T14:08:08.367Z,6.50
2019-03-17T14:10:40.766Z,6.50
2019-03-17T14:13:03.180Z,6.50
2019-03-17T14:15:29.885Z,6.50
2019-03-17T14:17:56.562Z,6.60
2019-03-17T14:20:23.045Z,6.50
2019-03-17T14:22:49.794Z,6.50
2019-03-17T14:25:17.791Z,6.50
2019-03-17T14:27:44.459Z,6.50
2019-03-17T14:30:11.834Z,6.60
2019-03-17T14:32:38.546Z,6.70
2019-03-17T14:35:05.263Z,6.70
2019-03-17T14:37:32.045Z,6.90
2019-03-17T14:39:58.778Z,6.90
2019-03-17T14:42:25.223Z,7.00
2019-03-17T14:44:51.914Z,7.00
2019-03-17T14:47:18.364Z,7.00
2019-03-17T14:49:44.929Z,7.10
2019-03-17T14:52:11.698Z,7.10
2019-03-17T14:54:39.647Z,7.10
2019-03-17T14:57:06.335Z,7.10
2019-03-17T14:59:33.280Z,7.00
2019-03-17T15:01:59.747Z,7.00
2019-03-17T15:04:26.455Z,7.00
2019-03-17T15:06:53.158Z,6.90
2019-03-17T15:09:19.634Z,6.80
2019-03-17T15:11:46.318Z,6.70
2019-03-17T15:14:13.242Z,6.50
2019-03-17T15:16:39.738Z,6.10
2019-03-17T15:19:06.675Z,5.80
2019-03-17T15:21:33.127Z,5.60
2019-03-17T15:23:59.922Z,5.40
2019-03-17T15:26:26.853Z,5.30
2019-03-17T15:28:53.334Z,5.20
2019-03-17T15:31:19.834Z,5.20
2019-03-17T15:33:46.591Z,5.20
2019-03-17T15:36:13.053Z,5.30
2019-03-17T15:38:39.499Z,5.30
2019-03-17T15:41:17.682Z,5.40
2019-03-17T15:43:34.829Z,5.40
2019-03-17T15:46:01.547Z,5.40
2019-03-17T15:48:28.243Z,5.50
2019-03-17T15:50:54.962Z,5.50
2019-03-17T15:53:21.654Z,5.50
2019-03-17T15:55:48.150Z,5.60
2019-03-17T15:58:15.183Z,5.60
2019-03-17T16:00:41.906Z,5.70
2019-03-17T16:03:08.822Z,5.70
2019-03-17T16:05:35.459Z,5.80
2019-03-17T16:08:01.910Z,5.80
2019-03-17T16:10:28.632Z,5.80
2019-03-17T16:12:55.332Z,5.80
2019-03-17T16:15:22.034Z,5.80
2019-03-17T16:17:48.725Z,5.70
2019-03-17T16:20:15.726Z,5.70
2019-03-17T16:22:42.682Z,5.80
2019-03-17T16:25:09.478Z,6.30
2019-03-17T16:27:36.393Z,6.70
2019-03-17T16:30:03.490Z,6.70
2019-03-17T16:32:29.974Z,6.70
2019-03-17T16:34:56.646Z,6.60
2019-03-17T16:37:23.354Z,6.80
2019-03-17T16:39:50.277Z,6.90
2019-03-17T16:42:16.978Z,7.00
2019-03-17T16:44:43.431Z,7.00
2019-03-17T16:47:10.363Z,7.10
2019-03-17T16:49:37.291Z,7.10
2019-03-17T16:52:03.753Z,6.90
2019-03-17T16:54:30.443Z,6.60
2019-03-17T16:56:57.158Z,6.30
2019-03-17T16:59:23.594Z,6.20
2019-03-17T17:01:50.766Z,6.10
2019-03-17T17:04:17.740Z,6.00
2019-03-17T17:06:44.687Z,5.90
2019-03-17T17:09:11.679Z,5.80
2019-03-17T17:11:38.370Z,5.70
2019-03-17T17:14:04.818Z,5.50
2019-03-17T17:16:31.783Z,5.50
2019-03-17T17:18:58.249Z,5.40
2019-03-17T17:21:25.075Z,5.30
2019-03-17T17:23:51.509Z,5.20
2019-03-17T17:26:18.206Z,5.20
2019-03-17T17:28:45.349Z,5.20
2019-03-17T17:31:12.090Z,5.20
2019-03-17T17:33:38.787Z,5.10
2019-03-17T17:36:05.246Z,5.10
2019-03-17T17:38:31.931Z,5.00
2019-03-17T17:40:58.394Z,5.00
2019-03-17T17:43:25.336Z,4.90
2019-03-17T17:45:51.830Z,4.90
2019-03-17T17:48:18.270Z,4.80
2019-03-17T17:50:45.199Z,4.80
2019-03-17T17:53:11.906Z,4.70
2019-03-17T17:55:38.623Z,4.70
2019-03-17T17:58:05.322Z,4.70
2019-03-17T18:00:34.342Z,4.70
2019-03-17T18:03:01.062Z,4.70
2019-03-17T18:05:27.822Z,4.70
2019-03-17T18:07:54.950Z,4.60
2019-03-17T18:10:21.393Z,4.70
2019-03-17T18:12:48.452Z,4.80
2019-03-17T18:15:16.170Z,4.80
2019-03-17T18:17:43.135Z,4.80
2019-03-17T18:20:10.342Z,4.70
2019-03-17T18:22:36.902Z,4.60
2019-03-17T18:25:03.770Z,4.60
2019-03-17T18:27:30.590Z,4.50
2019-03-17T18:29:57.282Z,4.50
2019-03-17T18:32:23.787Z,4.50
2019-03-17T18:34:50.700Z,4.40
2019-03-17T18:37:17.741Z,4.40
2019-03-17T18:39:44.995Z,4.30
2019-03-17T18:42:11.475Z,4.30
2019-03-17T18:44:38.162Z,4.20
2019-03-17T18:47:04.918Z,4.20
2019-03-17T18:49:31.363Z,4.10
2019-03-17T18:51:58.191Z,4.00
2019-03-17T18:54:24.630Z,4.00
2019-03-17T18:56:51.350Z,3.80
2019-03-17T18:59:18.225Z,3.80
2019-03-17T19:01:44.734Z,3.70
2019-03-17T19:04:11.206Z,3.60
2019-03-17T19:06:37.646Z,3.50
2019-03-17T19:09:05.018Z,3.40
2019-03-17T19:11:31.471Z,3.40
2019-03-17T19:13:58.214Z,3.40
2019-03-17T19:16:24.907Z,3.40
2019-03-17T19:18:51.703Z,3.30
2019-03-17T19:21:18.414Z,3.20
2019-03-17T19:23:45.482Z,3.20
2019-03-17T19:26:12.064Z,3.10
2019-03-17T19:28:38.875Z,3.10
2019-03-17T19:31:05.632Z,3.00
2019-03-17T19:33:32.348Z,3.00
2019-03-17T19:35:59.035Z,3.00
2019-03-17T19:38:25.606Z,3.10
2019-03-17T19:40:52.294Z,3.00
2019-03-17T19:43:19.122Z,3.00
2019-03-17T19:45:45.622Z,3.10
2019-03-17T19:48:12.352Z,3.00
2019-03-17T19:50:39.030Z,3.10
2019-03-17T19:53:05.982Z,3.10
2019-03-17T19:55:32.668Z,3.00
2019-03-17T19:57:59.390Z,3.00
2019-03-17T20:00:25.830Z,3.00
2019-03-17T20:02:53.045Z,2.90
2019-03-17T20:05:19.579Z,2.90
2019-03-17T20:07:46.301Z,2.80
2019-03-17T20:10:13.976Z,2.80
2019-03-17T20:12:40.455Z,2.80
2019-03-17T20:15:07.259Z,2.70
2019-03-17T20:17:33.931Z,2.60
2019-03-17T20:20:00.650Z,2.50
2019-03-17T20:22:27.153Z,2.40
2019-03-17T20:24:54.487Z,2.40
2019-03-17T20:27:21.858Z,2.50
2019-03-17T20:29:48.793Z,2.60
2019-03-17T20:32:15.743Z,2.70
2019-03-17T20:34:42.214Z,2.60
2019-03-17T20:37:08.738Z,2.50
2019-03-17T20:39:35.392Z,2.30
2019-03-17T20:42:02.394Z,2.20
2019-03-17T20:44:29.366Z,2.10
2019-03-17T20:46:56.042Z,2.10
2019-03-17T20:49:22.494Z,2.00
2019-03-17T20:51:49.433Z,2.00
2019-03-17T20:54:16.231Z,2.00
2019-03-17T20:56:42.923Z,1.90
2019-03-17T20:59:09.381Z,1.90
2019-03-17T21:01:36.059Z,2.00
2019-03-17T21:04:03.334Z,1.90
2019-03-17T21:06:30.042Z,1.90
2019-03-17T21:08:56.747Z,1.90
2019-03-17T21:11:23.195Z,1.90
2019-03-17T21:13:49.905Z,1.90
2019-03-17T21:16:16.615Z,1.80
2019-03-17T21:18:43.554Z,1.80
2019-03-17T21:21:10.486Z,1.70
2019-03-17T21:23:36.972Z,1.70
2019-03-17T21:26:03.412Z,1.60
2019-03-17T21:28:30.702Z,1.60
2019-03-17T21:30:57.482Z,1.60
2019-03-17T21:33:24.199Z,1.50
2019-03-17T21:35:50.913Z,1.60
2019-03-17T21:38:17.601Z,1.60
2019-03-17T21:41:05.708Z,1.60
2019-03-17T21:43:13.346Z,1.60
2019-03-17T21:45:40.054Z,1.60
2019-03-17T21:48:06.742Z,1.50
2019-03-17T21:50:33.437Z,1.60
2019-03-17T21:53:00.110Z,1.60
2019-03-17T21:55:27.850Z,1.50
2019-03-17T21:57:54.812Z,1.50
2019-03-17T22:00:21.518Z,1.40
2019-03-17T22:02:47.960Z,1.40
2019-03-17T22:05:14.751Z,1.50
2019-03-17T22:07:49.603Z,1.50
2019-03-17T22:10:10.095Z,1.40
2019-03-17T22:12:37.326Z,1.40
2019-03-17T22:15:04.256Z,1.30
2019-03-17T22:17:30.703Z,1.30
2019-03-17T22:19:57.183Z,1.30
2019-03-17T22:22:23.617Z,1.30
2019-03-17T22:24:50.086Z,1.20
2019-03-17T22:27:17.011Z,1.20
2019-03-17T22:29:43.470Z,1.20
2019-03-17T22:32:10.171Z,1.10
2019-03-17T22:34:36.870Z,1.10
2019-03-17T22:37:03.791Z,1.10
2019-03-17T22:39:30.504Z,1.00
2019-03-17T22:41:57.050Z,1.00
2019-03-17T22:44:25.860Z,1.00
2019-03-17T22:46:52.565Z,1.00
2019-03-17T22:49:19.466Z,0.90
2019-03-17T22:51:46.186Z,0.90
2019-03-17T22:54:13.215Z,0.80
2019-03-17T22:56:39.910Z,0.80
2019-03-17T22:59:06.349Z,0.90
2019-03-17T23:01:32.817Z,1.00
2019-03-17T23:03:59.604Z,0.90
2019-03-17T23:06:26.303Z,1.00
2019-03-17T23:08:52.743Z,1.00
2019-03-17T23:11:19.203Z,1.10
2019-03-17T23:13:45.895Z,1.10
2019-03-17T23:16:12.587Z,1.10
2019-03-17T23:18:39.022Z,1.20
2019-03-17T23:21:05.721Z,1.20
2019-03-17T23:23:32.450Z,1.30
2019-03-17T23:25:59.150Z,1.40
2019-03-17T23:28:25.839Z,1.40
2019-03-17T23:30:52.531Z,1.50
2019-03-17T23:33:19.252Z,1.50
2019-03-17T23:35:46.190Z,1.50
2019-03-17T23:38:13.114Z,1.50
2019-03-17T23:40:39.923Z,1.50
2019-03-17T23:43:06.650Z,1.50
2019-03-17T23:45:33.143Z,1.60
2019-03-17T23:47:59.904Z,1.70
2019-03-17T23:50:26.601Z,1.70
2019-03-17T23:52:53.979Z,1.80
2019-03-17T23:55:20.424Z,1.80
2019-03-17T23:57:47.172Z,1.90
